createdAt,value
2022-08-24T00:03:12.126Z,18.20
2022-08-24T00:13:16.944Z,18.20
2022-08-24T00:23:22.203Z,18.00
2022-08-24T00:33:26.587Z,17.90
2022-08-24T00:43:33.161Z,18.00
2022-08-24T00:53:41.611Z,17.90
2022-08-24T01:03:47.518Z,17.80
2022-08-24T01:13:53.728Z,17.70
2022-08-24T01:24:01.907Z,17.70
2022-08-24T01:34:06.299Z,17.80
2022-08-24T01:44:12.175Z,17.90
2022-08-24T01:54:18.351Z,17.90
2022-08-24T02:04:23.957Z,17.90
2022-08-24T02:14:30.671Z,17.90
2022-08-24T02:24:38.722Z,17.90
2022-08-24T02:34:44.185Z,17.90
2022-08-24T02:44:50.559Z,17.90
2022-08-24T02:54:57.646Z,17.90
2022-08-24T03:05:03.625Z,17.90
2022-08-24T03:15:11.740Z,17.90
2022-08-24T03:25:20.678Z,17.80
2022-08-24T03:35:24.917Z,17.80
2022-08-24T03:45:30.894Z,17.80
2022-08-24T03:55:35.130Z,17.80
2022-08-24T04:05:42.432Z,17.80
2022-08-24T04:15:46.499Z,17.70
2022-08-24T04:25:51.889Z,17.70
2022-08-24T04:35:55.968Z,17.70
2022-08-24T04:46:08.104Z,17.70
2022-08-24T04:56:15.902Z,17.70
2022-08-24T05:06:26.048Z,17.90
2022-08-24T05:16:30.716Z,18.00
2022-08-24T05:26:38.164Z,18.10
2022-08-24T05:36:43.470Z,18.50
2022-08-24T05:47:03.016Z,18.90
2022-08-24T05:57:07.993Z,19.40
2022-08-24T06:07:27.120Z,19.40
2022-08-24T06:17:34.037Z,19.60
2022-08-24T06:27:39.318Z,20.20
2022-08-24T06:37:43.473Z,20.60
2022-08-24T06:47:49.728Z,20.80
2022-08-24T06:57:54.873Z,20.60
2022-08-24T07:08:00.577Z,20.40
2022-08-24T07:18:10.007Z,20.50
2022-08-24T07:28:18.754Z,20.70
2022-08-24T07:38:35.871Z,20.70
2022-08-24T07:48:41.629Z,21.00
2022-08-24T07:58:45.534Z,21.40
2022-08-24T08:08:50.486Z,21.70
2022-08-24T08:19:09.220Z,22.30
2022-08-24T08:29:17.043Z,22.90
2022-08-24T08:39:23.566Z,23.70
2022-08-24T08:50:01.601Z,24.10
2022-08-24T09:00:15.492Z,25.00
2022-08-24T09:10:55.966Z,25.40
2022-08-24T09:21:16.484Z,25.40
2022-08-24T09:31:59.109Z,25.20
2022-08-24T09:43:04.275Z,25.30
2022-08-24T09:53:55.931Z,26.30
2022-08-24T10:04:27.109Z,29.00
2022-08-24T10:14:53.778Z,29.90
2022-08-24T10:25:32.888Z,31.40
2022-08-24T10:35:53.869Z,30.00
2022-08-24T10:46:37.941Z,30.10
2022-08-24T10:56:55.121Z,32.70
2022-08-24T11:07:11.046Z,40.70
2022-08-24T11:17:22.033Z,38.30
2022-08-24T11:27:32.254Z,33.20
2022-08-24T11:37:40.626Z,39.80
2022-08-24T11:48:00.055Z,37.80
2022-08-24T11:58:12.935Z,35.60
2022-08-24T12:08:24.791Z,32.80
2022-08-24T12:18:39.865Z,31.40
2022-08-24T12:28:54.217Z,31.90
2022-08-24T12:39:11.299Z,30.60
2022-08-24T12:49:25.259Z,30.00
2022-08-24T12:59:32.961Z,32.70
2022-08-24T13:09:41.165Z,31.70
2022-08-24T13:20:39.367Z,29.40
2022-08-24T13:31:22.122Z,28.70
2022-08-24T13:41:55.266Z,29.10
2022-08-24T13:52:16.758Z,27.50
2022-08-24T14:02:38.290Z,28.10
2022-08-24T14:12:56.460Z,29.20
2022-08-24T14:23:08.394Z,29.30
2022-08-24T14:33:26.671Z,29.30
2022-08-24T14:43:55.364Z,29.10
2022-08-24T14:54:05.443Z,29.70
2022-08-24T15:04:38.448Z,29.10
2022-08-24T15:14:53.074Z,28.10
2022-08-24T15:25:12.369Z,27.00
2022-08-24T15:35:27.804Z,27.10
2022-08-24T15:45:33.279Z,27.10
2022-08-24T15:55:40.748Z,27.10
2022-08-24T16:05:49.447Z,27.20
2022-08-24T16:16:05.200Z,27.00
2022-08-24T16:26:29.775Z,26.70
2022-08-24T16:36:34.876Z,26.40
2022-08-24T16:46:40.797Z,25.30
2022-08-24T16:56:44.774Z,24.30
2022-08-24T17:06:50.848Z,23.00
2022-08-24T17:16:55.066Z,22.30
2022-08-24T17:27:02.053Z,21.80
2022-08-24T17:37:05.908Z,21.40
2022-08-24T17:47:10.962Z,20.90
2022-08-24T17:57:15.833Z,20.60
2022-08-24T18:07:42.342Z,20.10
2022-08-24T18:17:49.676Z,19.90
2022-08-24T18:27:58.616Z,19.70
2022-08-24T18:38:02.438Z,19.60
2022-08-24T18:48:07.855Z,19.50
2022-08-24T18:58:11.507Z,19.40
2022-08-24T19:08:16.916Z,19.20
2022-08-24T19:18:23.817Z,19.10
2022-08-24T19:28:30.068Z,18.90
2022-08-24T19:38:33.827Z,18.80
2022-08-24T19:48:40.532Z,18.70
2022-08-24T19:58:49.220Z,18.50
2022-08-24T20:08:54.718Z,18.30
2022-08-24T20:19:00.357Z,18.00
2022-08-24T20:29:06.023Z,17.90
2022-08-24T20:39:13.317Z,17.80
2022-08-24T20:49:21.800Z,17.80
2022-08-24T20:59:26.032Z,17.70
2022-08-24T21:09:31.151Z,17.70
2022-08-24T21:19:35.056Z,17.50
2022-08-24T21:29:40.424Z,17.30
2022-08-24T21:39:44.978Z,17.20
2022-08-24T21:49:50.156Z,17.00
2022-08-24T21:59:53.986Z,16.80
2022-08-24T22:09:59.855Z,16.60
2022-08-24T22:20:04.126Z,16.40
2022-08-24T22:30:12.299Z,16.30
2022-08-24T22:40:16.277Z,16.10
2022-08-24T22:50:24.146Z,16.00
2022-08-24T23:00:27.898Z,15.80
2022-08-24T23:10:33.320Z,15.70
2022-08-24T23:20:37.351Z,15.60
2022-08-24T23:30:42.531Z,15.50
2022-08-24T23:40:46.325Z,15.40
2022-08-24T23:50:51.630Z,15.30
